Time;durP1;ratioP1;P1;durP2;ratioP2;P2;SDS_P1;SDS_P2;PMS_P1;PMS_P2;Temp;Humidity;BMP_temperature;BMP_pressure;BME280_temperature;BME280_humidity;BME280_pressure;Samples;Min_cycle;Max_cycle;Signal;HPM_P1;HPM_P2
2020/12/19 00:02:06;;;;;;;62.13;14.38;;;;;;;2.15;100.00;100833.31;10437817;28;20551;-70
2020/12/19 00:07:14;;;;;;;36.47;13.40;;;;;;;2.03;100.00;100853.28;10460112;28;20052;-70
2020/12/19 00:12:20;;;;;;;34.90;13.30;;;;;;;1.94;100.00;100843.06;10457268;28;20393;-70
2020/12/19 00:17:21;;;;;;;25.65;12.88;;;;;;;1.92;100.00;100830.19;10453651;28;20056;-70
2020/12/19 00:22:22;;;;;;;30.42;13.10;;;;;;;1.93;100.00;100831.03;10454122;28;20088;-70
2020/12/19 00:27:23;;;;;;;28.60;13.07;;;;;;;1.78;100.00;100833.81;10452068;28;20052;-69
2020/12/19 00:32:24;;;;;;;37.92;16.80;;;;;;;1.80;100.00;100820.00;10459465;28;20053;-69
2020/12/19 00:37:28;;;;;;;42.95;13.60;;;;;;;1.81;100.00;100810.53;10460955;28;20886;-71
2020/12/19 00:42:29;;;;;;;21.27;12.50;;;;;;;1.79;100.00;100817.41;10461620;28;20110;-70
2020/12/19 00:47:30;;;;;;;23.63;12.80;;;;;;;1.68;100.00;100817.53;10460469;28;20045;-70
2020/12/19 00:52:31;;;;;;;21.63;11.73;;;;;;;1.73;100.00;100807.19;10460163;28;20045;-70
2020/12/19 00:57:32;;;;;;;22.83;12.02;;;;;;;1.77;100.00;100803.72;10459722;28;20099;-70
2020/12/19 01:02:36;;;;;;;24.77;13.00;;;;;;;1.76;100.00;100794.25;10441118;28;20037;-70
2020/12/19 01:07:46;;;;;;;30.85;14.90;;;;;;;1.81;100.00;100795.03;10443549;28;20049;-70
2020/12/19 01:12:47;;;;;;;21.98;13.07;;;;;;;1.82;100.00;100796.75;10458915;28;20060;-70
2020/12/19 01:17:48;;;;;;;22.15;12.27;;;;;;;1.79;100.00;100796.78;10460523;28;20128;-70
2020/12/19 01:22:49;;;;;;;22.63;12.73;;;;;;;1.78;100.00;100789.94;10459650;28;20041;-70
2020/12/19 01:27:50;;;;;;;22.25;13.27;;;;;;;1.95;100.00;100787.97;10458658;28;20118;-70
2020/12/19 01:32:52;;;;;;;23.33;14.07;;;;;;;1.97;100.00;100783.66;10457382;28;20053;-69
2020/12/19 01:38:09;;;;;;;26.20;14.10;;;;;;;2.10;100.00;100787.78;10456719;28;20134;-70
2020/12/19 01:43:10;;;;;;;22.10;13.00;;;;;;;2.10;100.00;100782.63;10455703;28;20398;-70
2020/12/19 01:48:22;;;;;;;24.30;13.32;;;;;;;2.09;100.00;100786.91;10457148;28;20191;-69
2020/12/19 01:53:23;;;;;;;24.08;14.27;;;;;;;2.10;100.00;100782.63;10456266;28;20416;-70
2020/12/19 01:58:24;;;;;;;26.30;15.07;;;;;;;2.10;100.00;100780.03;10455987;28;20103;-70
2020/12/19 02:03:25;;;;;;;26.48;15.20;;;;;;;2.15;100.00;100780.81;10439489;28;20408;-70
2020/12/19 02:08:26;;;;;;;27.40;15.00;;;;;;;2.19;100.00;100776.47;10457344;28;20044;-70
2020/12/19 02:13:27;;;;;;;23.45;13.48;;;;;;;2.26;100.00;100778.94;10437936;28;20496;-69
2020/12/19 02:18:28;;;;;;;23.65;13.77;;;;;;;2.29;100.00;100763.41;10455677;28;20053;-70
2020/12/19 02:23:29;;;;;;;21.33;13.48;;;;;;;2.38;100.00;100750.38;10438372;28;20056;-70
2020/12/19 02:28:30;;;;;;;19.73;12.02;;;;;;;2.40;100.00;100738.25;10457272;28;20048;-69
2020/12/19 02:33:30;;;;;;;23.33;12.27;;;;;;;2.45;100.00;100738.19;10453881;28;20049;-70
2020/12/19 02:38:40;;;;;;;20.75;12.27;;;;;;;2.48;100.00;100722.66;10454150;28;20055;-70
2020/12/19 02:43:41;;;;;;;22.92;13.23;;;;;;;2.52;100.00;100722.59;10455040;28;20045;-70
2020/12/19 02:48:42;;;;;;;25.33;14.82;;;;;;;2.59;100.00;100728.50;10455138;28;20057;-70
2020/12/19 02:53:43;;;;;;;22.65;14.27;;;;;;;2.51;100.00;100720.00;10454042;28;20096;-69
2020/12/19 02:58:44;;;;;;;22.90;14.50;;;;;;;2.50;100.00;100728.63;10453963;28;20053;-69
2020/12/19 03:03:45;;;;;;;20.73;13.27;;;;;;;2.41;100.00;100729.66;10452969;28;20049;-69
2020/12/19 03:09:02;;;;;;;20.08;12.95;;;;;;;2.30;100.00;100738.44;10453253;28;20416;-69
2020/12/19 03:14:03;;;;;;;18.13;11.80;;;;;;;2.17;100.00;100722.28;10453084;28;20048;-69
2020/12/19 03:19:04;;;;;;;20.42;11.93;;;;;;;2.09;100.00;100716.34;10452869;28;20068;-69
2020/12/19 03:24:05;;;;;;;22.67;13.35;;;;;;;2.05;100.00;100725.88;10452986;28;20045;-69
2020/12/19 03:29:06;;;;;;;19.00;11.80;;;;;;;1.99;100.00;100712.19;10434678;28;20456;-69
2020/12/19 03:34:07;;;;;;;21.45;12.95;;;;;;;1.89;100.00;100714.06;10451190;28;20060;-70
2020/12/19 03:39:16;;;;;;;19.27;11.98;;;;;;;1.88;100.00;100709.78;10451912;28;20060;-69
2020/12/19 03:44:17;;;;;;;22.17;12.02;;;;;;;1.90;100.00;100709.75;10451807;28;20053;-69
2020/12/19 03:49:18;;;;;;;20.15;13.05;;;;;;;1.88;100.00;100701.22;10451434;28;20493;-69
2020/12/19 03:54:19;;;;;;;18.95;11.88;;;;;;;1.83;100.00;100696.06;10451353;28;20100;-70
2020/12/19 03:59:20;;;;;;;20.08;12.40;;;;;;;1.81;100.00;100681.50;10451402;28;20390;-70
2020/12/19 04:04:21;;;;;;;20.58;12.10;;;;;;;1.73;100.00;100679.88;10431699;28;20048;-69
2020/12/19 04:09:33;;;;;;;24.80;14.02;;;;;;;1.71;100.00;100686.81;10434831;28;20405;-70
2020/12/19 04:14:39;;;;;;;21.85;12.82;;;;;;;1.64;100.00;100686.88;10450428;28;20048;-70
2020/12/19 04:19:41;;;;;;;22.13;13.13;;;;;;;1.61;100.00;100684.38;10451024;28;20053;-70
2020/12/19 04:24:42;;;;;;;24.67;12.88;;;;;;;1.52;100.00;100672.44;10433277;28;20048;-70
2020/12/19 04:29:43;;;;;;;22.58;12.63;;;;;;;1.50;100.00;100670.75;10450772;28;20084;-69
2020/12/19 04:34:44;;;;;;;30.13;14.52;;;;;;;1.53;100.00;100671.56;10450172;28;20536;-70
2020/12/19 04:39:53;;;;;;;32.85;15.32;;;;;;;1.42;100.00;100668.28;10433822;28;20128;-70
2020/12/19 04:44:55;;;;;;;23.90;13.68;;;;;;;1.28;100.00;100671.00;10432802;28;20053;-70
2020/12/19 04:49:58;;;;;;;24.17;13.50;;;;;;;1.20;100.00;100667.69;10450009;28;20567;-70
2020/12/19 04:54:59;;;;;;;24.88;13.82;;;;;;;1.13;100.00;100670.34;10450460;28;20048;-69
2020/12/19 05:00:00;;;;;;;28.05;14.63;;;;;;;1.07;100.00;100666.09;10449952;28;20053;-70
2020/12/19 05:05:06;;;;;;;24.50;14.25;;;;;;;1.02;100.00;100672.19;10449272;28;20056;-69
2020/12/19 05:10:14;;;;;;;26.15;13.32;;;;;;;1.00;100.00;100666.19;10450187;28;20045;-69
2020/12/19 05:15:16;;;;;;;27.55;14.63;;;;;;;1.04;100.00;100678.19;10451585;28;20420;-69
2020/12/19 05:20:19;;;;;;;35.53;16.50;;;;;;;1.06;100.00;100673.88;10457233;28;20045;-69
2020/12/19 05:25:22;;;;;;;35.03;17.70;;;;;;;1.14;100.00;100661.75;10456893;28;20099;-69
2020/12/19 05:30:23;;;;;;;48.85;20.27;;;;;;;1.15;100.00;100660.88;10455829;28;20048;-70
2020/12/19 05:35:24;;;;;;;37.47;18.67;;;;;;;1.22;100.00;100670.22;10438663;28;20416;-70
2020/12/19 05:40:30;;;;;;;40.08;18.05;;;;;;;1.20;100.00;100653.94;10456551;28;20053;-70
2020/12/19 05:45:32;;;;;;;35.55;16.48;;;;;;;1.08;100.00;100678.13;10438508;28;20075;-70
2020/12/19 05:50:33;;;;;;;24.30;13.70;;;;;;;1.08;100.00;100682.41;10455677;28;20057;-70
2020/12/19 05:55:34;;;;;;;25.40;14.18;;;;;;;1.03;100.00;100685.06;10455513;28;20059;-70
2020/12/19 06:00:37;;;;;;;23.35;13.23;;;;;;;0.94;100.00;100686.88;10454964;28;20048;-69
2020/12/19 06:05:38;;;;;;;22.27;13.52;;;;;;;0.95;100.00;100692.03;10455567;28;20052;-69
2020/12/19 06:10:47;;;;;;;24.02;13.60;;;;;;;0.93;100.00;100687.75;10454903;28;20049;-69
2020/12/19 06:16:07;;;;;;;24.92;13.57;;;;;;;0.86;100.00;100685.22;10437970;28;20068;-69
2020/12/19 06:21:09;;;;;;;24.27;13.48;;;;;;;0.80;100.00;100676.72;10457084;28;20087;-70
2020/12/19 06:26:11;;;;;;;26.23;14.13;;;;;;;0.73;100.00;100681.06;10445024;28;20044;-70
2020/12/19 06:31:21;;;;;;;24.08;12.55;;;;;;;0.59;100.00;100687.22;10495070;28;20052;-69
2020/12/19 06:36:24;;;;;;;25.10;13.88;;;;;;;0.50;100.00;100680.44;10495462;28;20044;-69
2020/12/19 06:41:49;;;;;;;25.77;13.30;;;;;;;0.45;100.00;100678.78;10477699;28;20110;-69
2020/12/19 06:46:51;;;;;;;25.95;13.52;;;;;;;0.47;100.00;100685.59;10495078;28;20097;-69
2020/12/19 06:52:20;;;;;;;25.65;13.20;;;;;;;0.55;100.00;100688.13;10494733;28;20048;-69
2020/12/19 06:57:30;;;;;;;25.52;13.57;;;;;;;0.60;100.00;100692.38;10495030;28;20058;-69
2020/12/19 07:02:31;;;;;;;27.38;14.55;;;;;;;0.69;100.00;100694.00;10478949;28;20056;-70
2020/12/19 07:07:32;;;;;;;27.33;14.75;;;;;;;0.67;100.00;100688.00;10435533;28;20049;-69
2020/12/19 07:12:35;;;;;;;26.90;14.20;;;;;;;0.74;100.00;100695.66;10453618;28;20051;-70
2020/12/19 07:17:44;;;;;;;26.13;14.40;;;;;;;0.69;100.00;100700.00;10453712;28;20057;-70
2020/12/19 07:22:46;;;;;;;32.30;17.80;;;;;;;0.64;100.00;100706.06;10435681;28;20057;-70
2020/12/19 07:27:47;;;;;;;30.15;16.67;;;;;;;0.65;100.00;100697.47;10453289;28;20076;-70
2020/12/19 07:32:49;;;;;;;27.40;16.58;;;;;;;0.64;100.00;100706.94;10434580;28;20053;-70
2020/12/19 07:37:50;;;;;;;27.35;16.42;;;;;;;0.62;100.00;100718.94;10452053;28;20049;-69
2020/12/19 07:43:04;;;;;;;32.13;19.38;;;;;;;0.69;100.00;100730.06;10452192;28;20076;-70
2020/12/19 07:48:06;;;;;;;30.95;18.50;;;;;;;0.50;100.00;100721.66;10450375;28;20056;-70
2020/12/19 07:53:08;;;;;;;28.80;17.75;;;;;;;0.54;100.00;100719.88;10450507;28;20091;-69
2020/12/19 07:58:10;;;;;;;32.47;17.85;;;;;;;0.54;100.00;100730.19;10450668;28;20505;-70
2020/12/19 08:03:11;;;;;;;27.95;16.60;;;;;;;0.61;100.00;100743.00;10449352;28;20516;-69
2020/12/19 08:08:12;;;;;;;28.30;16.67;;;;;;;0.59;100.00;100739.59;10450241;28;20406;-70
2020/12/19 08:13:15;;;;;;;25.95;15.10;;;;;;;0.67;100.00;100735.22;10447198;28;20049;-70
2020/12/19 08:18:16;;;;;;;28.00;16.80;;;;;;;0.79;100.00;100736.84;10449678;28;20060;-70
2020/12/19 08:23:19;;;;;;;28.27;17.15;;;;;;;0.89;100.00;100737.59;10449594;28;20049;-71
2020/12/19 08:28:21;;;;;;;30.67;16.60;;;;;;;0.95;100.00;100740.13;10445215;28;20048;-70
2020/12/19 08:33:29;;;;;;;33.20;18.90;;;;;;;1.12;100.00;100740.78;10430509;28;20076;-70
2020/12/19 08:38:31;;;;;;;32.60;19.35;;;;;;;1.33;100.00;100730.25;10449606;28;20045;-70
2020/12/19 08:43:35;;;;;;;39.75;22.83;;;;;;;1.56;100.00;100736.00;10448736;28;20128;-70
2020/12/19 08:48:37;;;;;;;51.75;29.65;;;;;;;1.84;100.00;100749.41;10449162;28;20053;-70
2020/12/19 08:53:38;;;;;;;59.20;31.15;;;;;;;2.10;100.00;100742.16;10456981;28;20049;-70
2020/12/19 08:58:40;;;;;;;45.63;25.45;;;;;;;2.47;100.00;100747.63;10405532;28;20057;-70
2020/12/19 09:03:42;;;;;;;40.47;24.48;;;;;;;2.77;100.00;100760.94;10430677;28;20455;-70
2020/12/19 09:08:45;;;;;;;32.97;22.17;;;;;;;3.08;100.00;100766.44;10449534;28;20508;-70
2020/12/19 09:13:47;;;;;;;24.90;16.67;;;;;;;3.26;100.00;100766.09;10454991;28;20049;-70
2020/12/19 09:18:49;;;;;;;22.42;14.88;;;;;;;3.37;100.00;100765.00;10430990;28;20463;-70
2020/12/19 09:23:49;;;;;;;22.92;14.40;;;;;;;3.44;100.00;100770.94;10456499;28;20047;-71
2020/12/19 09:28:52;;;;;;;23.45;15.57;;;;;;;3.49;100.00;100763.94;10430549;28;20512;-70
2020/12/19 09:33:52;;;;;;;24.38;14.52;;;;;;;3.51;100.00;100766.47;10447883;28;20057;-72
2020/12/19 09:38:53;;;;;;;26.55;16.20;;;;;;;3.52;100.00;100770.75;10445788;28;20126;-71
2020/12/19 09:43:54;;;;;;;26.80;16.85;;;;;;;3.62;100.00;100770.56;10451370;28;20052;-72
2020/12/19 09:48:55;;;;;;;28.60;19.20;;;;;;;3.75;100.00;100772.03;10431449;28;20048;-72
2020/12/19 09:53:56;;;;;;;26.02;17.25;;;;;;;3.91;100.00;100769.97;10437876;28;20041;-71
2020/12/19 09:58:57;;;;;;;21.73;13.65;;;;;;;3.98;100.00;100779.31;10437644;28;20048;-71
2020/12/19 10:03:58;;;;;;;28.77;17.23;;;;;;;4.03;100.00;100767.13;10453603;28;20067;-71
2020/12/19 10:09:00;;;;;;;24.33;14.57;;;;;;;4.08;100.00;100754.06;10452941;28;20057;-71
2020/12/19 10:14:01;;;;;;;21.25;13.20;;;;;;;4.15;100.00;100761.69;10447021;28;20041;-71
2020/12/19 10:19:02;;;;;;;32.90;18.42;;;;;;;4.24;100.00;100763.19;10429403;28;20049;-72
2020/12/19 10:24:03;;;;;;;22.15;15.07;;;;;;;4.42;100.00;100760.16;10429626;28;20485;-71
2020/12/19 10:29:04;;;;;;;24.85;15.65;;;;;;;4.53;100.00;100753.00;10420641;28;20049;-72
2020/12/19 10:34:05;;;;;;;19.83;12.48;;;;;;;4.71;100.00;100747.38;10447525;28;20041;-71
2020/12/19 10:39:06;;;;;;;20.00;13.63;;;;;;;4.86;100.00;100746.16;10437446;28;20459;-72
2020/12/19 10:44:07;;;;;;;25.40;14.27;;;;;;;4.97;100.00;100746.72;10446789;28;20124;-71
2020/12/19 10:49:08;;;;;;;20.00;12.68;;;;;;;5.06;100.00;100748.22;10413426;28;20175;-71
2020/12/19 10:54:09;;;;;;;23.08;14.70;;;;;;;5.25;100.00;100744.25;10452390;28;20052;-71
2020/12/19 10:59:10;;;;;;;27.23;14.57;;;;;;;5.33;100.00;100726.75;10414723;28;20055;-71
2020/12/19 11:04:11;;;;;;;21.75;14.60;;;;;;;5.34;100.00;100705.06;10444303;28;20051;-71
2020/12/19 11:09:13;;;;;;;25.10;14.52;;;;;;;5.32;100.00;100711.19;10437576;28;20049;-71
2020/12/19 11:14:14;;;;;;;21.35;14.30;;;;;;;5.37;100.00;100702.41;10430379;28;20075;-71
2020/12/19 11:19:15;;;;;;;21.65;14.50;;;;;;;5.40;100.00;100685.88;10419273;28;20053;-71
2020/12/19 11:24:16;;;;;;;24.02;15.73;;;;;;;5.48;100.00;100678.72;10448273;28;20525;-71
2020/12/19 11:29:17;;;;;;;28.35;17.52;;;;;;;5.61;100.00;100674.88;10427132;28;20044;-71
2020/12/19 11:34:18;;;;;;;29.75;17.40;;;;;;;5.71;100.00;100665.91;10424837;28;20059;-72
2020/12/19 11:39:19;;;;;;;26.35;16.65;;;;;;;5.80;100.00;100673.41;10451148;28;20049;-71
2020/12/19 11:44:20;;;;;;;29.92;20.25;;;;;;;5.87;100.00;100651.59;10432607;28;20053;-71
2020/12/19 11:49:21;;;;;;;25.30;14.73;;;;;;;5.94;100.00;100660.88;10425491;28;20056;-71
2020/12/19 11:54:22;;;;;;;22.98;15.07;;;;;;;6.10;100.00;100657.81;10450136;28;20506;-71
2020/12/19 11:59:23;;;;;;;22.27;14.68;;;;;;;6.21;100.00;100643.56;10449374;28;20455;-71
2020/12/19 12:04:24;;;;;;;20.05;13.05;;;;;;;6.35;100.00;100650.91;10448409;28;20053;-71
2020/12/19 12:09:25;;;;;;;22.75;13.75;;;;;;;6.47;100.00;100639.28;10448784;28;20496;-71
2020/12/19 12:14:26;;;;;;;21.23;14.40;;;;;;;6.58;100.00;100627.59;10431765;28;20455;-71
2020/12/19 12:19:27;;;;;;;23.02;14.10;;;;;;;6.72;100.00;100664.41;10449719;28;20055;-72
2020/12/19 12:24:27;;;;;;;22.17;13.70;;;;;;;6.75;99.57;100640.91;10451847;28;20095;-71
2020/12/19 12:29:28;;;;;;;22.55;14.30;;;;;;;6.85;99.46;100639.66;10463716;28;20056;-72
2020/12/19 12:34:29;;;;;;;19.77;12.75;;;;;;;6.75;98.74;100621.84;10461611;28;20048;-71
2020/12/19 12:39:30;;;;;;;23.45;14.65;;;;;;;6.67;100.00;100634.25;10442876;28;20055;-70
2020/12/19 12:44:43;;;;;;;19.63;13.25;;;;;;;6.65;100.00;100646.47;10458767;28;20045;-71
2020/12/19 12:49:45;;;;;;;21.27;14.88;;;;;;;6.57;100.00;100607.69;10436356;28;20497;-71
2020/12/19 12:54:46;;;;;;;24.17;14.32;;;;;;;6.61;100.00;100613.63;10448629;28;20042;-71
2020/12/19 12:59:47;;;;;;;20.30;13.75;;;;;;;6.73;100.00;100618.44;10423267;28;20616;-71
2020/12/19 13:04:48;;;;;;;19.63;13.65;;;;;;;6.67;100.00;100601.28;10442088;28;20037;-72
2020/12/19 13:09:50;;;;;;;22.25;15.05;;;;;;;6.80;100.00;100615.56;10462389;28;20049;-71
2020/12/19 13:15:04;;;;;;;23.38;13.95;;;;;;;6.79;100.00;100603.47;10462061;28;20047;-72
2020/12/19 13:20:05;;;;;;;21.83;13.75;;;;;;;6.80;100.00;100599.09;10445735;28;20049;-73
2020/12/19 13:25:06;;;;;;;19.17;13.25;;;;;;;6.92;99.80;100592.59;10461839;28;20041;-71
2020/12/19 13:30:07;;;;;;;20.60;13.75;;;;;;;6.97;99.02;100590.69;10442250;28;20516;-71
2020/12/19 13:35:08;;;;;;;20.35;13.27;;;;;;;6.98;98.08;100576.78;10456985;28;20120;-71
2020/12/19 13:40:08;;;;;;;18.60;12.90;;;;;;;6.91;98.07;100585.72;10447472;28;20075;-71
2020/12/19 13:45:19;;;;;;;21.85;13.85;;;;;;;6.83;98.57;100583.38;10456383;28;20040;-71
2020/12/19 13:50:20;;;;;;;21.95;13.82;;;;;;;6.65;100.00;100591.84;10440786;28;20099;-71
2020/12/19 13:55:21;;;;;;;19.60;13.60;;;;;;;6.53;100.00;100595.72;10442122;28;20049;-71
2020/12/19 14:00:22;;;;;;;20.55;13.73;;;;;;;6.48;100.00;100592.41;10445248;28;20053;-71
2020/12/19 14:05:23;;;;;;;19.42;14.30;;;;;;;6.58;100.00;100596.41;10448517;28;20695;-72
2020/12/19 14:10:24;;;;;;;25.77;15.55;;;;;;;6.48;100.00;100597.63;10450394;28;20049;-72
2020/12/19 14:15:35;;;;;;;23.42;14.38;;;;;;;6.59;100.00;100587.72;10446372;28;20084;-71
2020/12/19 14:20:38;;;;;;;21.88;14.60;;;;;;;6.56;100.00;100606.00;10407098;28;20049;-71
2020/12/19 14:25:39;;;;;;;22.15;14.73;;;;;;;6.66;100.00;100601.31;10456117;28;20048;-71
2020/12/19 14:30:40;;;;;;;23.98;15.27;;;;;;;6.75;100.00;100601.03;10415704;28;20107;-71
2020/12/19 14:35:41;;;;;;;24.38;16.17;;;;;;;6.72;100.00;100620.19;10454624;28;20051;-71
2020/12/19 14:40:43;;;;;;;24.65;16.27;;;;;;;6.67;100.00;100610.84;10451206;28;20500;-70
2020/12/19 14:45:57;;;;;;;22.27;15.80;;;;;;;6.66;100.00;100615.19;10431788;28;20044;-71
2020/12/19 14:50:58;;;;;;;24.42;15.43;;;;;;;6.63;100.00;100617.03;10448025;28;20052;-70
2020/12/19 14:55:59;;;;;;;22.83;14.90;;;;;;;6.59;100.00;100624.13;10446441;28;20415;-70
2020/12/19 15:01:00;;;;;;;24.10;16.23;;;;;;;6.61;100.00;100624.91;10434645;28;20045;-70
2020/12/19 15:06:08;;;;;;;24.98;15.68;;;;;;;6.54;100.00;100618.22;10452335;28;20390;-71
2020/12/19 15:11:16;;;;;;;26.38;15.88;;;;;;;6.55;100.00;100624.28;10433423;28;20416;-70
2020/12/19 15:16:18;;;;;;;25.40;16.73;;;;;;;6.50;100.00;100615.78;10437114;28;20137;-71
2020/12/19 15:21:19;;;;;;;25.98;18.08;;;;;;;6.50;100.00;100616.63;10450100;28;20056;-71
2020/12/19 15:26:24;;;;;;;23.60;17.02;;;;;;;6.48;100.00;100621.03;10445097;28;20054;-71
2020/12/19 15:31:25;;;;;;;26.67;17.90;;;;;;;6.45;100.00;100621.09;10443592;28;20456;-70
2020/12/19 15:36:26;;;;;;;24.10;17.60;;;;;;;6.42;100.00;100623.81;10449870;28;20124;-70
2020/12/19 15:41:27;;;;;;;27.33;18.08;;;;;;;6.39;100.00;100631.75;10449824;28;20179;-70
2020/12/19 15:46:28;;;;;;;24.17;17.55;;;;;;;6.36;100.00;100639.63;10451473;28;20513;-71
2020/12/19 15:51:29;;;;;;;25.75;16.60;;;;;;;6.38;100.00;100637.84;10447775;28;20061;-71
2020/12/19 15:56:30;;;;;;;28.63;18.23;;;;;;;6.40;100.00;100646.41;10444824;28;20133;-72
2020/12/19 16:01:31;;;;;;;25.15;18.00;;;;;;;6.37;100.00;100647.38;10448397;28;20618;-72
2020/12/19 16:06:37;;;;;;;34.03;22.65;;;;;;;6.38;100.00;100643.03;10450731;28;20172;-72
2020/12/19 16:11:38;;;;;;;37.28;24.35;;;;;;;6.37;100.00;100651.72;10435483;28;20424;-71
2020/12/19 16:16:46;;;;;;;47.10;30.90;;;;;;;6.38;100.00;100663.84;10433387;28;20040;-72
2020/12/19 16:21:48;;;;;;;59.35;36.55;;;;;;;6.33;100.00;100635.38;10450395;28;20048;-71
2020/12/19 16:26:49;;;;;;;51.25;33.97;;;;;;;6.29;100.00;100643.34;10447189;28;20540;-72
2020/12/19 16:31:51;;;;;;;45.88;30.98;;;;;;;6.30;100.00;100660.63;10448993;28;20140;-72
2020/12/19 16:36:52;;;;;;;45.45;30.55;;;;;;;6.32;100.00;100648.44;10453482;28;20099;-72
2020/12/19 16:41:53;;;;;;;37.75;25.80;;;;;;;6.23;100.00;100648.72;10451490;28;20115;-72
2020/12/19 16:47:04;;;;;;;35.92;24.63;;;;;;;6.19;100.00;100648.00;10430497;28;20052;-72
2020/12/19 16:52:05;;;;;;;37.45;25.27;;;;;;;6.09;100.00;100637.94;10431532;28;20053;-71
2020/12/19 16:57:09;;;;;;;36.70;23.38;;;;;;;5.94;100.00;100647.91;10429604;28;20045;-72
2020/12/19 17:02:11;;;;;;;37.08;25.08;;;;;;;5.90;100.00;100654.09;10431110;28;20040;-72
2020/12/19 17:07:12;;;;;;;35.83;24.13;;;;;;;5.79;100.00;100648.34;10428925;28;20053;-70
2020/12/19 17:12:13;;;;;;;42.60;27.25;;;;;;;5.69;100.00;100646.91;10437401;28;20493;-71
2020/12/19 17:17:18;;;;;;;46.95;30.33;;;;;;;5.67;100.00;100664.31;10437298;28;20099;-71
2020/12/19 17:22:19;;;;;;;54.20;35.05;;;;;;;5.63;100.00;100667.91;10443288;28;20079;-71
2020/12/19 17:27:21;;;;;;;66.25;39.25;;;;;;;5.68;100.00;100676.41;10442560;28;20049;-70
2020/12/19 17:32:27;;;;;;;61.28;37.58;;;;;;;5.69;100.00;100669.47;10450190;28;20503;-71
2020/12/19 17:37:29;;;;;;;56.83;36.70;;;;;;;5.71;100.00;100676.28;10459445;28;20444;-71
2020/12/19 17:42:29;;;;;;;58.20;36.75;;;;;;;5.66;100.00;100667.78;10458807;28;20132;-71
2020/12/19 17:47:37;;;;;;;57.57;37.10;;;;;;;5.71;100.00;100673.69;10458418;28;20416;-71
2020/12/19 17:52:38;;;;;;;51.83;33.53;;;;;;;5.64;100.00;100673.94;10457037;28;20061;-70
2020/12/19 17:57:39;;;;;;;51.22;35.85;;;;;;;5.53;100.00;100666.47;10458833;28;20060;-71
2020/12/19 18:02:40;;;;;;;57.35;37.38;;;;;;;5.53;100.00;100687.25;10453878;28;20044;-71
2020/12/19 18:07:41;;;;;;;52.15;35.38;;;;;;;5.43;100.00;100691.84;10432097;28;20076;-71
2020/12/19 18:12:42;;;;;;;51.58;34.42;;;;;;;5.41;100.00;100690.19;10422712;28;20085;-71
2020/12/19 18:17:55;;;;;;;58.92;39.17;;;;;;;5.39;100.00;100697.13;10425906;28;20076;-71
2020/12/19 18:22:56;;;;;;;70.78;44.03;;;;;;;5.32;100.00;100695.63;10425605;28;20044;-71
2020/12/19 18:27:57;;;;;;;68.70;45.22;;;;;;;5.38;100.00;100698.06;10427870;28;20450;-70
2020/12/19 18:32:58;;;;;;;69.57;43.75;;;;;;;5.38;100.00;100688.53;10449316;28;20053;-71
2020/12/19 18:37:59;;;;;;;43.67;29.23;;;;;;;5.35;100.00;100703.31;10427673;28;20483;-71
2020/12/19 18:43:00;;;;;;;42.00;26.67;;;;;;;5.10;100.00;100706.59;10434329;28;20083;-71
2020/12/19 18:48:14;;;;;;;35.08;24.00;;;;;;;4.97;100.00;100713.00;10432731;28;20069;-70
2020/12/19 18:53:14;;;;;;;38.67;24.90;;;;;;;4.86;100.00;100709.84;10447603;28;20656;-70
2020/12/19 18:58:15;;;;;;;38.38;24.85;;;;;;;4.77;100.00;100693.69;10430664;28;20053;-71
2020/12/19 19:03:17;;;;;;;39.03;26.77;;;;;;;4.66;100.00;100691.34;10438724;28;20048;-71
2020/12/19 19:08:17;;;;;;;35.95;25.17;;;;;;;4.54;100.00;100695.09;10449472;28;20492;-71
2020/12/19 19:13:18;;;;;;;38.53;24.77;;;;;;;4.53;100.00;100700.31;10451245;28;20045;-70
2020/12/19 19:18:30;;;;;;;35.75;23.30;;;;;;;4.49;100.00;100694.34;10421779;28;20107;-71
2020/12/19 19:23:31;;;;;;;41.05;25.38;;;;;;;4.41;100.00;100711.00;10414790;28;20068;-71
2020/12/19 19:28:32;;;;;;;43.38;27.55;;;;;;;4.49;100.00;100698.69;10454400;28;20053;-71
2020/12/19 19:33:33;;;;;;;43.03;27.27;;;;;;;4.50;100.00;100703.00;10471842;28;20048;-71
2020/12/19 19:38:35;;;;;;;44.33;28.48;;;;;;;4.61;100.00;100688.03;10453195;28;20049;-71
2020/12/19 19:43:37;;;;;;;49.50;30.45;;;;;;;4.64;100.00;100698.31;10431734;28;20052;-71
2020/12/19 19:48:49;;;;;;;49.50;32.95;;;;;;;4.65;100.00;100694.81;10415859;28;20049;-71
2020/12/19 19:53:50;;;;;;;64.47;43.60;;;;;;;4.68;100.00;100705.09;10446627;28;20045;-71
2020/12/19 19:58:52;;;;;;;60.17;39.53;;;;;;;4.76;100.00;100703.19;10427374;28;20044;-71
2020/12/19 20:09:11;;;;;;;65.70;42.53;;;;;;;4.55;100.00;100704.56;10592037;23;20054;-72
2020/12/19 20:14:12;;;;;;;71.28;46.05;;;;;;;4.47;100.00;100706.50;10270049;28;20126;-71
2020/12/19 20:19:13;;;;;;;75.18;46.92;;;;;;;4.38;100.00;100703.28;10244846;28;20047;-72
2020/12/19 20:24:14;;;;;;;75.72;48.25;;;;;;;4.26;100.00;100689.75;10267406;28;20559;-72
2020/12/19 20:29:16;;;;;;;69.57;44.83;;;;;;;4.15;100.00;100698.66;10285104;28;20062;-72
2020/12/19 20:34:17;;;;;;;76.97;48.15;;;;;;;4.13;100.00;100710.78;10304429;28;20092;-72
2020/12/19 20:39:18;;;;;;;71.85;45.85;;;;;;;4.01;100.00;100717.09;10320010;28;20101;-72
2020/12/19 20:44:19;;;;;;;85.47;53.15;;;;;;;4.03;100.00;100725.66;10306107;28;20073;-72
2020/12/19 20:49:28;;;;;;;83.47;52.45;;;;;;;4.01;100.00;100727.47;10327041;28;20061;-73
2020/12/19 20:54:29;;;;;;;83.85;54.85;;;;;;;3.95;100.00;100722.41;10314280;28;20109;-72
2020/12/19 20:59:29;;;;;;;48.38;31.98;;;;;;;3.83;100.00;100725.25;10327413;28;20133;-72
2020/12/19 21:04:31;;;;;;;47.72;30.90;;;;;;;3.81;100.00;100727.00;10317251;28;20063;-71
2020/12/19 21:09:32;;;;;;;44.47;28.58;;;;;;;3.80;100.00;100727.94;10333253;28;20074;-72
2020/12/19 21:14:32;;;;;;;46.67;30.50;;;;;;;3.87;100.00;100719.97;10301278;28;20158;-72
2020/12/19 21:19:46;;;;;;;47.95;30.77;;;;;;;3.93;100.00;100719.00;10337667;28;20081;-72
2020/12/19 21:24:47;;;;;;;54.38;33.65;;;;;;;3.96;100.00;100718.09;10319335;28;20042;-73
2020/12/19 21:29:48;;;;;;;52.20;34.08;;;;;;;3.99;100.00;100712.81;10342087;28;20074;-72
2020/12/19 21:34:49;;;;;;;57.47;36.95;;;;;;;4.01;100.00;100711.94;10332493;28;20489;-72
2020/12/19 21:39:50;;;;;;;55.80;35.80;;;;;;;4.01;100.00;100709.34;10307196;28;20134;-72
2020/12/19 21:44:51;;;;;;;57.08;37.05;;;;;;;4.08;100.00;100703.13;10292192;28;20050;-72
2020/12/19 21:50:05;;;;;;;58.63;37.80;;;;;;;4.05;100.00;100703.19;10297299;28;20051;-72
2020/12/19 21:55:09;;;;;;;70.93;45.80;;;;;;;4.08;100.00;100704.84;10325387;28;20573;-72
2020/12/19 22:00:13;;;;;;;71.10;45.97;;;;;;;4.07;100.00;100701.41;10313960;28;20058;-72
2020/12/19 22:05:14;;;;;;;59.42;40.10;;;;;;;4.06;100.00;100707.50;10320874;28;20445;-71
2020/12/19 22:10:17;;;;;;;61.15;41.00;;;;;;;4.06;100.00;100699.72;10288694;28;20050;-72
2020/12/19 22:15:18;;;;;;;48.88;32.22;;;;;;;4.05;100.00;100708.38;10299028;28;20120;-72
2020/12/19 22:20:21;;;;;;;62.28;42.00;;;;;;;4.09;100.00;100704.81;10288858;28;20089;-73
2020/12/19 22:25:22;;;;;;;50.50;34.28;;;;;;;4.07;100.00;100711.75;10289684;28;20043;-75
2020/12/19 22:30:23;;;;;;;47.72;32.97;;;;;;;4.04;100.00;100704.06;10290598;28;20054;-73
2020/12/19 22:35:24;;;;;;;44.85;30.42;;;;;;;4.08;100.00;100715.22;10307093;28;20098;-73
2020/12/19 22:40:25;;;;;;;52.25;33.17;;;;;;;4.08;100.00;100710.03;10293116;28;20053;-74
2020/12/19 22:45:26;;;;;;;51.83;33.47;;;;;;;4.07;100.00;100716.94;10307534;28;20110;-73